Red Kite #3: Tempus Fugit

Individual Time Trial: Sunday March 22, 2015 – Schedule
Part of the 2015 Red Kite Omnium

Results: Pro/1/2

Place # First Last City Cat Team License Age Time Diff Points
1 909 Justin ROSSI Reno, NV 1 Herbalife p/b MarcPro-Strava 0298550 35 00:23:31.88 25
2 897 Nathaniel ENGLISH Berkeley, CA 1 Team Mike's Bikes p/b Equator Coffees 0258309 31 00:24:00.82 +00:00:28.94 24
3 918 Colin DAW Saratoga, CA 1 Team Mike's Bikes p/b Equator Coffees 0257770 25 00:24:01.04 +00:00:29.16 23
4 905 Roman KILUN Oakland, CA 1 Team Mike's Bikes p/b Equator Coffees 0153790 34 00:24:06.15 +00:00:34.27 22
5 913 Connor SPENCER San Francisco, CA 1 CoreTechs Elite 0256539 29 00:24:11.87 +00:00:39.99 21
6 907 Max KORUS Palo Alto, CA 1 Team Mike's Bikes p/b Equator Coffees 0290610 27 00:24:31.32 +00:00:59.44 20
7 920 Matt SCHAUPP Watsonville, CA 1 VuMedi Cycling Team 0311816 20 00:24:47.39 +00:01:15.51 19
8 899 Reese LEVINE Orinda, CA 1 Team Mike's Bikes p/b Equator Coffees 0263998 20 00:25:06.49 +00:01:34.61 18
9 921 Byron ANSON West Sacramento, CA 1 VuMedi Cycling Team 0304735 29 00:25:09.94 +00:01:38.06 17
10 915 Stephen CABEBE San Jose, CA 2 VuMedi Cycling Team 0366124 23 00:25:28.84 +00:01:56.96 16
11 901 Joshua CARLING El Dorado, CA 1 Herbalife p/b MarcPro-Strava 0234584 34 00:25:28.85 +00:01:56.97 15
12 912 Ariel HERRMANN San Francisco, CA 1 Herbalife p/b MarcPro-Strava 0163046 35 00:25:41.82 +00:02:09.94 14
13 898 Matt CHATLAONG Berkeley, CA 1 Herbalife p/b Marc Pro - Strava 304797 23 00:25:45.40 +00:02:13.52 13
14 917 Bryan LARSEN Santa Rosa, CA 1 VuMedi Cycling Team 0195204 25 00:25:49.77 +00:02:17.89 12
15 903 Gregory WHITE Lafayette, CA 1 VuMedi Cycling Team 0246669 31 00:25:50.82 +00:02:18.94 11
16 900 Todd STONE Carmichael, CA 2 VuMedi Cycling Team 0249318 26 00:26:15.03 +00:02:43.15 10
17 914 Bobby ABUYEN San Jose, CA 2 ZOCA p/b Halo Sports 0333294 34 00:26:27.74 +00:02:55.86 9
18 904 Russell WHITE Lafayette, CA 2 VuMedi Cycling Team 0236024 36 00:26:36.72 +00:03:04.84 8
19 911 Jason GANDZJUK Salinas, CA 2 VuMedi Cycling Team 0366582 24 00:26:52.54 +00:03:20.66 7
20 906 Sean SMITH Oakland, CA 2 CyclesFANATICRacing.com 0204018 44 00:27:22.05 +00:03:50.17 6
21 919 Travis LYONS Walnut Creek, CA 1 Team Mike's Bikes p/b Equator Coffees 0320598 22 00:27:40.37 +00:04:08.49 5
22 908 Mark MANNING Redwood City, CA 2 0087090 49 00:27:53.39 +00:04:21.51 4
23 910 Nathanael CHRISTENSEN Roseville, CA 1 CoreTechs Elite 0239919 25 00:28:00.00 +00:04:28.12 3
DNS 902 Sergei BADEKA Fremont, CA 2 CoreTechs Cycling Team 0118797 33
DNS 916 Chris RIEKERT San Jose, CA 1 Team Mike's Bikes p/b Equator Coffees 0267361 30
Field: 23 of 25

Teams – Pro/1/2

Place Team Points
1 Team Mike's Bikes p/b Equator Coffees
  » English (24), Daw (23), Kilun (22), Korus (20), Levine (18)
  « Lyons
107
2 VuMedi Cycling Team
  » Schaupp (19), Anson (17), Cabebe (16), Larsen (12), White (11)
  « Stone, White, Gandzjuk
75
3 Herbalife p/b MarcPro-Strava
  » Rossi (25), Carling (15), Herrmann (14)
54
Table notes: